createdAt,value
2019-04-01T00:00:54.918Z,77.17
2019-04-01T00:01:54.697Z,77.37
2019-04-01T00:02:54.697Z,78.00
2019-04-01T00:03:54.673Z,77.89
2019-04-01T00:04:54.663Z,76.65
2019-04-01T00:05:54.666Z,77.37
2019-04-01T00:06:54.716Z,76.54
2019-04-01T00:07:54.637Z,78.03
2019-04-01T00:08:54.617Z,77.69
2019-04-01T00:09:54.605Z,77.93
2019-04-01T00:10:54.596Z,78.03
2019-04-01T00:11:54.584Z,77.20
2019-04-01T00:12:54.653Z,76.65
2019-04-01T00:13:54.564Z,76.12
2019-04-01T00:14:54.586Z,76.12
2019-04-01T00:15:54.541Z,76.23
2019-04-01T00:16:54.527Z,75.50
2019-04-01T00:17:54.526Z,76.43
2019-04-01T00:19:03.025Z,76.47
2019-04-01T00:19:55.511Z,76.37
2019-04-01T00:20:54.484Z,76.26
2019-04-01T00:21:54.492Z,76.26
2019-04-01T00:22:54.586Z,76.47
2019-04-01T00:23:54.471Z,76.16
2019-04-01T00:24:54.510Z,75.29
2019-04-01T00:25:54.514Z,74.87
2019-04-01T00:26:54.416Z,74.66
2019-04-01T00:27:54.404Z,74.56
2019-04-01T00:28:54.394Z,74.25
2019-04-01T00:29:54.383Z,74.21
2019-04-01T00:30:54.429Z,73.69
2019-04-01T00:31:54.361Z,73.38
2019-04-01T00:32:54.350Z,72.97
2019-04-01T00:33:54.397Z,73.18
2019-04-01T00:34:54.326Z,73.59
2019-04-01T00:35:54.315Z,73.28
2019-04-01T00:36:54.307Z,73.28
2019-04-01T00:37:54.293Z,73.42
2019-04-01T00:38:54.541Z,73.00
2019-04-01T00:39:54.273Z,73.49
2019-04-01T00:40:54.270Z,73.21
2019-04-01T00:41:54.250Z,73.59
2019-04-01T00:42:54.270Z,73.32
2019-04-01T00:43:54.234Z,72.55
2019-04-01T00:44:54.479Z,72.34
2019-04-01T00:45:54.205Z,71.89
2019-04-01T00:46:54.199Z,71.48
2019-04-01T00:47:54.183Z,71.89
2019-04-01T00:48:54.172Z,71.37
2019-04-01T00:49:54.159Z,72.10
2019-04-01T00:50:54.220Z,71.06
2019-04-01T00:51:54.150Z,71.48
2019-04-01T00:52:54.127Z,71.79
2019-04-01T00:53:54.114Z,71.41
2019-04-01T00:54:54.105Z,71.27
2019-04-01T00:55:54.092Z,70.64
2019-04-01T00:56:54.133Z,71.06
2019-04-01T00:57:54.070Z,70.95
2019-04-01T00:58:54.058Z,71.27
2019-04-01T00:59:54.158Z,71.20
2019-04-01T01:00:54.034Z,70.75
2019-04-01T01:01:54.038Z,70.54
2019-04-01T01:02:54.024Z,70.02
2019-04-01T01:03:54.003Z,70.23
2019-04-01T01:04:53.988Z,70.64
2019-04-01T01:05:54.036Z,70.23
2019-04-01T01:06:53.969Z,70.12
2019-04-01T01:07:53.955Z,69.71
2019-04-01T01:08:53.944Z,69.60
2019-04-01T01:09:53.998Z,69.29
2019-04-01T01:10:53.921Z,68.98
2019-04-01T01:11:53.914Z,69.60
2019-04-01T01:12:53.900Z,68.84
2019-04-01T01:13:53.890Z,68.53
2019-04-01T01:14:53.882Z,68.84
2019-04-01T01:15:54.081Z,69.15
2019-04-01T01:16:53.857Z,68.32
2019-04-01T01:17:53.839Z,68.22
2019-04-01T01:18:53.834Z,68.95
2019-04-01T01:19:53.861Z,68.53
2019-04-01T01:20:53.810Z,69.05
2019-04-01T01:21:53.863Z,68.88
2019-04-01T01:22:53.854Z,68.66
2019-04-01T01:23:53.771Z,68.04
2019-04-01T01:24:53.759Z,67.80
2019-04-01T01:25:53.748Z,67.18
2019-04-01T01:26:53.815Z,66.87
2019-04-01T01:27:53.731Z,67.29
2019-04-01T01:28:53.740Z,68.53
2019-04-01T01:29:53.701Z,69.60
2019-04-01T01:30:53.691Z,70.26
2019-04-01T01:31:53.679Z,70.89
2019-04-01T01:32:53.745Z,71.23
2019-04-01T01:33:53.673Z,71.99
2019-04-01T01:34:53.670Z,72.62
2019-04-01T01:35:53.632Z,72.96
2019-04-01T01:36:53.630Z,72.86
2019-04-01T01:37:53.700Z,73.10
2019-04-01T01:38:53.604Z,73.52
2019-04-01T01:39:53.585Z,72.75
2019-04-01T01:40:53.599Z,72.55
2019-04-01T01:41:53.564Z,71.92
2019-04-01T01:42:53.552Z,72.09
2019-04-01T01:43:53.632Z,71.19
2019-04-01T01:44:53.538Z,71.09
2019-04-01T01:45:53.545Z,71.26
2019-04-01T01:46:53.509Z,71.19
2019-04-01T01:47:53.496Z,70.88
2019-04-01T01:48:53.486Z,70.53
2019-04-01T01:49:53.559Z,70.12
2019-04-01T01:50:53.469Z,70.74
2019-04-01T01:51:53.453Z,70.64
2019-04-01T01:52:53.460Z,70.43
2019-04-01T01:53:53.435Z,70.43
2019-04-01T01:54:53.420Z,70.78
2019-04-01T01:55:53.462Z,71.19
2019-04-01T01:56:53.397Z,71.50
2019-04-01T01:57:53.633Z,71.19
2019-04-01T01:58:53.372Z,71.43
2019-04-01T01:59:53.373Z,71.40
2019-04-01T02:00:53.358Z,71.19
2019-04-01T02:01:53.339Z,71.81
2019-04-01T02:02:53.333Z,70.78
2019-04-01T02:03:53.389Z,71.30
2019-04-01T02:04:53.315Z,71.30
2019-04-01T02:05:53.298Z,70.98
2019-04-01T02:06:53.301Z,71.30
2019-04-01T02:07:53.281Z,71.61
2019-04-01T02:08:53.264Z,71.22
2019-04-01T02:09:53.328Z,71.22
2019-04-01T02:10:53.238Z,71.67
2019-04-01T02:11:53.231Z,71.67
2019-04-01T02:12:53.234Z,71.88
2019-04-01T02:13:53.207Z,72.09
2019-04-01T02:14:53.196Z,71.88
2019-04-01T02:15:53.247Z,71.98
2019-04-01T02:16:53.187Z,72.51
2019-04-01T02:17:53.160Z,72.54
2019-04-01T02:18:53.150Z,72.44
2019-04-01T02:19:53.137Z,72.44
2019-04-01T02:20:53.129Z,73.07
2019-04-01T02:21:53.185Z,72.64
2019-04-01T02:22:53.150Z,72.85
2019-04-01T02:23:53.092Z,72.64
2019-04-01T02:24:53.085Z,72.85
2019-04-01T02:25:53.075Z,72.23
2019-04-01T02:26:53.058Z,72.54
2019-04-01T02:27:53.122Z,72.44
2019-04-01T02:28:53.035Z,72.54
2019-04-01T02:29:53.025Z,72.64
2019-04-01T02:30:53.061Z,72.75
2019-04-01T02:31:53.008Z,72.54
2019-04-01T02:32:52.990Z,73.30
2019-04-01T02:33:53.050Z,73.20
2019-04-01T02:34:52.970Z,73.52
2019-04-01T02:35:52.968Z,73.44
2019-04-01T02:36:52.963Z,73.55
2019-04-01T02:37:52.936Z,74.07
2019-04-01T02:38:52.923Z,74.18
2019-04-01T02:39:53.002Z,74.07
2019-04-01T02:40:52.900Z,73.75
2019-04-01T02:41:52.887Z,73.44
2019-04-01T02:42:52.880Z,73.55
2019-04-01T02:43:52.873Z,74.10
2019-04-01T02:44:52.853Z,74.28
2019-04-01T02:45:52.908Z,73.96
2019-04-01T02:46:52.843Z,73.44
2019-04-01T02:47:52.841Z,73.86
2019-04-01T02:48:52.811Z,73.65
2019-04-01T02:49:52.797Z,74.31
2019-04-01T02:50:52.786Z,74.94
2019-04-01T02:51:52.871Z,74.21
2019-04-01T02:52:52.776Z,75.36
2019-04-01T02:53:52.755Z,75.04
2019-04-01T02:54:52.764Z,75.71
2019-04-01T02:55:52.730Z,75.36
2019-04-01T02:56:52.722Z,74.94
2019-04-01T02:57:52.773Z,74.31
2019-04-01T02:58:52.702Z,74.52
2019-04-01T02:59:52.694Z,74.42
2019-04-01T03:00:52.680Z,74.24
2019-04-01T03:01:52.665Z,74.55
2019-04-01T03:02:52.678Z,74.31
2019-04-01T03:03:52.717Z,74.73
2019-04-01T03:04:52.647Z,75.15
2019-04-01T03:05:52.623Z,74.63
2019-04-01T03:06:52.634Z,74.76
2019-04-01T03:07:52.594Z,75.08
2019-04-01T03:08:52.585Z,74.84
2019-04-01T03:09:52.639Z,74.84
2019-04-01T03:10:52.603Z,75.15
2019-04-01T03:11:52.551Z,74.76
2019-04-01T03:12:52.543Z,76.12
2019-04-01T03:13:52.549Z,76.79
2019-04-01T03:14:52.514Z,76.54
2019-04-01T03:15:52.573Z,75.60
2019-04-01T03:16:52.499Z,76.33
2019-04-01T03:17:52.497Z,75.81
2019-04-01T03:18:52.482Z,75.53
2019-04-01T03:19:52.470Z,76.47
2019-04-01T03:20:52.449Z,76.33
2019-04-01T03:21:52.519Z,76.75
2019-04-01T03:22:52.462Z,76.79
2019-04-01T03:23:52.443Z,76.26
2019-04-01T03:24:52.413Z,77.52
2019-04-01T03:25:52.406Z,76.89
2019-04-01T03:26:52.382Z,76.89
2019-04-01T03:27:52.419Z,76.16
2019-04-01T03:28:52.426Z,77.00
2019-04-01T03:29:52.349Z,76.68
2019-04-01T03:30:52.348Z,78.18
2019-04-01T03:31:52.326Z,78.50
2019-04-01T03:32:52.313Z,78.60
2019-04-01T03:33:52.306Z,78.50
2019-04-01T03:34:52.365Z,77.94
2019-04-01T03:35:52.288Z,77.00
2019-04-01T03:36:52.272Z,77.00
2019-04-01T03:37:52.270Z,77.10
2019-04-01T03:38:52.246Z,77.66
2019-04-01T03:39:52.262Z,78.29
2019-04-01T03:40:52.446Z,79.16
2019-04-01T03:41:52.231Z,79.58
2019-04-01T03:42:52.204Z,80.10
2019-04-01T03:43:52.210Z,79.79
2019-04-01T03:44:55.016Z,79.83
2019-04-01T03:45:52.177Z,80.66
2019-04-01T03:46:52.206Z,80.80
2019-04-01T03:47:52.148Z,81.16
2019-04-01T03:48:52.205Z,80.84
2019-04-01T03:49:52.126Z,82.56
2019-04-01T03:50:52.119Z,82.91
2019-04-01T03:51:52.101Z,83.64
2019-04-01T03:52:52.093Z,84.00
2019-04-01T03:53:52.095Z,84.84
2019-04-01T03:54:52.132Z,85.42
2019-04-01T03:55:52.058Z,85.64
2019-04-01T03:56:52.047Z,84.48
2019-04-01T03:57:52.136Z,85.22
2019-04-01T03:58:52.023Z,85.53
2019-04-01T03:59:52.023Z,85.74
2019-04-01T04:00:52.048Z,85.42
2019-04-01T04:01:52.232Z,85.42
2019-04-01T04:02:52.025Z,85.78
2019-04-01T04:03:51.990Z,85.42
2019-04-01T04:04:51.962Z,85.57
2019-04-01T04:05:51.949Z,86.06
2019-04-01T04:06:51.934Z,85.60
2019-04-01T04:07:52.073Z,84.27
2019-04-01T04:08:51.910Z,85.01
2019-04-01T04:09:51.905Z,85.39
2019-04-01T04:10:51.891Z,85.42
2019-04-01T04:11:51.886Z,85.32
2019-04-01T04:12:51.864Z,85.89
2019-04-01T04:13:51.922Z,85.47
2019-04-01T04:14:51.993Z,85.68
2019-04-01T04:15:51.851Z,87.29
2019-04-01T04:16:51.828Z,87.25
2019-04-01T04:17:51.829Z,86.41
2019-04-01T04:18:51.797Z,86.41
2019-04-01T04:19:51.864Z,86.87
2019-04-01T04:20:51.785Z,87.19
2019-04-01T04:21:51.778Z,87.29
2019-04-01T04:22:51.758Z,86.87
2019-04-01T04:23:51.740Z,86.90
2019-04-01T04:24:51.742Z,85.53
2019-04-01T04:25:51.815Z,85.42
2019-04-01T04:26:51.706Z,85.53
2019-04-01T04:27:51.693Z,85.22
2019-04-01T04:28:51.689Z,85.11
2019-04-01T04:29:51.671Z,85.42
2019-04-01T04:30:51.674Z,84.86
2019-04-01T04:31:51.715Z,84.03
2019-04-01T04:32:51.651Z,84.44
2019-04-01T04:33:51.635Z,84.03
2019-04-01T04:34:51.616Z,84.44
2019-04-01T04:35:51.609Z,85.08
2019-04-01T04:36:51.591Z,84.38
2019-04-01T04:37:51.649Z,85.15
2019-04-01T04:38:51.565Z,85.25
2019-04-01T04:39:51.568Z,85.47
2019-04-01T04:40:51.565Z,86.55
2019-04-01T04:41:51.555Z,86.77
2019-04-01T04:42:51.522Z,87.29
2019-04-01T04:43:51.559Z,87.40
2019-04-01T04:44:51.498Z,86.87
2019-04-01T04:45:51.490Z,87.23
2019-04-01T04:46:51.478Z,87.33
2019-04-01T04:47:51.553Z,86.70
2019-04-01T04:48:51.453Z,88.13
2019-04-01T04:49:51.443Z,88.02
2019-04-01T04:50:51.442Z,87.85
2019-04-01T04:51:51.422Z,88.02
2019-04-01T04:52:51.410Z,88.20
2019-04-01T04:53:51.492Z,87.88
2019-04-01T04:54:51.397Z,87.95
2019-04-01T04:55:51.385Z,86.37
2019-04-01T04:56:51.366Z,85.60
2019-04-01T04:57:51.382Z,84.44
2019-04-01T04:58:51.340Z,83.88
2019-04-01T04:59:51.388Z,84.09
2019-04-01T05:00:51.318Z,84.44
2019-04-01T05:01:51.314Z,83.78
2019-04-01T05:02:51.297Z,84.41
2019-04-01T05:03:51.294Z,84.13
2019-04-01T05:04:51.336Z,84.30
2019-04-01T05:05:51.281Z,84.20
2019-04-01T05:06:51.295Z,84.30
2019-04-01T05:07:51.239Z,83.42
2019-04-01T05:08:51.271Z,83.25
2019-04-01T05:09:51.219Z,83.22
2019-04-01T05:10:51.269Z,82.48
2019-04-01T05:11:51.193Z,82.79
2019-04-01T05:12:51.182Z,82.34
2019-04-01T05:13:51.173Z,81.26
2019-04-01T05:14:51.163Z,80.17
2019-04-01T05:15:51.150Z,79.30
2019-04-01T05:16:51.200Z,79.30
2019-04-01T05:17:51.126Z,78.11
2019-04-01T05:18:51.121Z,77.45
2019-04-01T05:19:51.106Z,76.51
2019-04-01T05:20:51.106Z,74.91
2019-04-01T05:21:51.101Z,74.56
2019-04-01T05:22:51.145Z,73.79
2019-04-01T05:23:51.058Z,72.96
2019-04-01T05:24:51.107Z,72.82
2019-04-01T05:25:51.049Z,72.51
2019-04-01T05:26:51.059Z,71.98
2019-04-01T05:27:51.063Z,71.43
2019-04-01T05:28:51.003Z,71.22
2019-04-01T05:29:50.995Z,70.88
2019-04-01T05:30:50.979Z,70.15
2019-04-01T05:31:50.979Z,70.15
2019-04-01T05:32:51.021Z,69.63
2019-04-01T05:33:55.490Z,69.63
2019-04-01T05:34:50.935Z,69.59
2019-04-01T05:35:50.922Z,69.42
2019-04-01T05:36:50.931Z,69.91
2019-04-01T05:37:50.901Z,69.49
2019-04-01T05:38:50.970Z,68.87
2019-04-01T05:39:50.880Z,68.97
2019-04-01T05:40:50.866Z,68.76
2019-04-01T05:41:50.855Z,68.87
2019-04-01T05:42:50.864Z,68.76
2019-04-01T05:43:50.844Z,68.73
2019-04-01T05:44:50.890Z,68.42
2019-04-01T05:45:50.809Z,69.15
2019-04-01T05:46:50.799Z,67.76
2019-04-01T05:47:50.832Z,68.04
2019-04-01T05:48:50.799Z,66.66
2019-04-01T05:49:50.765Z,66.77
2019-04-01T05:50:50.818Z,67.05
2019-04-01T05:51:50.744Z,66.63
2019-04-01T05:52:50.733Z,66.31
2019-04-01T05:53:50.720Z,66.14
2019-04-01T05:54:50.710Z,66.80
2019-04-01T05:55:50.698Z,66.48
2019-04-01T05:56:50.747Z,67.14
2019-04-01T05:57:50.680Z,68.00
2019-04-01T05:58:50.666Z,68.87
2019-04-01T05:59:50.652Z,68.94
2019-04-01T06:00:50.641Z,68.60
2019-04-01T06:01:50.638Z,68.88
2019-04-01T06:02:50.687Z,68.84
2019-04-01T06:03:50.609Z,68.29
2019-04-01T06:04:50.594Z,67.88
2019-04-01T06:05:50.646Z,67.77
2019-04-01T06:06:50.573Z,67.67
2019-04-01T06:07:50.560Z,67.22
2019-04-01T06:08:50.569Z,66.60
2019-04-01T06:09:50.537Z,66.78
2019-04-01T06:10:50.528Z,66.08
2019-04-01T06:11:50.598Z,66.81
2019-04-01T06:12:50.504Z,66.08
2019-04-01T06:13:50.502Z,66.56
2019-04-01T06:14:50.480Z,67.25
2019-04-01T06:15:50.471Z,67.18
2019-04-01T06:16:50.459Z,67.36
2019-04-01T06:17:50.502Z,67.15
2019-04-01T06:18:50.434Z,67.02
2019-04-01T06:19:50.425Z,65.87
2019-04-01T06:20:50.420Z,66.39
2019-04-01T06:21:50.493Z,66.36
2019-04-01T06:22:50.390Z,66.15
2019-04-01T06:23:50.380Z,67.61
2019-04-01T06:24:50.370Z,65.22
2019-04-01T06:25:50.358Z,66.57
2019-04-01T06:26:50.348Z,66.75
2019-04-01T06:27:50.397Z,66.72
2019-04-01T06:28:50.322Z,64.23
2019-04-01T06:29:50.310Z,65.96
2019-04-01T06:30:50.321Z,64.48
2019-04-01T06:31:50.289Z,65.10
2019-04-01T06:32:50.283Z,64.86
2019-04-01T06:33:50.313Z,64.65
2019-04-01T06:34:53.044Z,66.18
2019-04-01T06:35:50.242Z,64.07
2019-04-01T06:36:50.235Z,62.14
2019-04-01T06:37:50.220Z,63.35
2019-04-01T06:38:50.282Z,61.98
2019-04-01T06:39:50.195Z,63.04
2019-04-01T06:40:50.185Z,61.49
2019-04-01T06:41:50.176Z,62.84
2019-04-01T06:42:50.170Z,64.25
2019-04-01T06:43:50.153Z,59.91
2019-04-01T06:44:50.205Z,60.84
2019-04-01T06:45:50.130Z,61.46
2019-04-01T06:46:50.120Z,60.94
2019-04-01T06:47:50.106Z,62.05
2019-04-01T06:48:50.164Z,58.95
2019-04-01T06:49:50.092Z,59.05
2019-04-01T06:50:50.073Z,58.95
2019-04-01T06:51:50.072Z,59.34
2019-04-01T06:52:50.051Z,59.05
2019-04-01T06:53:50.059Z,58.92
2019-04-01T06:54:50.074Z,59.08
2019-04-01T06:55:50.033Z,57.40
2019-04-01T06:56:50.003Z,56.98
2019-04-01T06:57:49.990Z,57.14
2019-04-01T06:58:49.980Z,57.55
2019-04-01T06:59:50.016Z,59.20
2019-04-01T07:00:49.956Z,59.18
2019-04-01T07:01:49.945Z,57.19
2019-04-01T07:02:49.934Z,57.40
2019-04-01T07:03:49.932Z,56.88
2019-04-01T07:04:50.152Z,56.67
2019-04-01T07:05:49.918Z,57.21
2019-04-01T07:06:49.891Z,58.12
2019-04-01T07:07:49.877Z,56.75
2019-04-01T07:08:49.869Z,56.29
2019-04-01T07:09:50.824Z,56.31
2019-04-01T07:10:49.892Z,57.03
2019-04-01T07:11:49.833Z,56.88
2019-04-01T07:12:49.822Z,54.56
2019-04-01T07:13:49.809Z,53.84
2019-04-01T07:14:49.861Z,54.77
2019-04-01T07:15:49.791Z,55.13
2019-04-01T07:16:49.777Z,52.64
2019-04-01T07:17:49.767Z,51.68
2019-04-01T07:18:49.752Z,51.89
2019-04-01T07:19:49.744Z,52.30
2019-04-01T07:20:49.813Z,50.74
2019-04-01T07:21:49.719Z,50.89
2019-04-01T07:22:49.787Z,50.76
2019-04-01T07:23:49.701Z,51.15
2019-04-01T07:24:49.684Z,49.48
2019-04-01T07:25:49.680Z,50.48
2019-04-01T07:26:49.909Z,49.40
2019-04-01T07:27:49.657Z,50.74
2019-04-01T07:28:49.711Z,50.32
2019-04-01T07:29:49.627Z,50.61
2019-04-01T07:30:49.618Z,50.20
2019-04-01T07:31:49.604Z,49.97
2019-04-01T07:32:49.661Z,48.84
2019-04-01T07:33:49.601Z,48.64
2019-04-01T07:34:49.581Z,48.58
2019-04-01T07:35:49.568Z,49.38
2019-04-01T07:36:49.549Z,48.97
2019-04-01T07:37:49.610Z,48.58
2019-04-01T07:38:49.588Z,49.40
2019-04-01T07:39:49.516Z,48.56
2019-04-01T07:40:49.509Z,48.14
2019-04-01T07:41:49.491Z,48.33
2019-04-01T07:42:49.483Z,48.14
2019-04-01T07:43:49.497Z,48.13
2019-04-01T07:44:49.527Z,48.14
2019-04-01T07:45:49.449Z,48.22
2019-04-01T07:46:49.437Z,48.25
2019-04-01T07:47:51.646Z,48.35
2019-04-01T07:48:49.413Z,47.51
2019-04-01T07:49:49.403Z,47.94
2019-04-01T07:50:49.457Z,47.12
2019-04-01T07:51:49.381Z,47.22
2019-04-01T07:52:49.416Z,46.89
2019-04-01T07:53:49.355Z,47.20
2019-04-01T07:54:49.347Z,46.67
2019-04-01T07:55:49.380Z,47.59
2019-04-01T07:56:49.323Z,46.54
2019-04-01T07:57:49.317Z,45.80
2019-04-01T07:58:49.299Z,46.44
2019-04-01T07:59:49.291Z,46.50
2019-04-01T08:00:49.349Z,44.61
2019-04-01T08:01:52.673Z,44.92
2019-04-01T08:02:49.338Z,44.90
2019-04-01T08:03:49.243Z,44.35
2019-04-01T08:04:49.232Z,42.91
2019-04-01T08:05:49.224Z,43.84
2019-04-01T08:06:49.270Z,42.38
2019-04-01T08:07:49.197Z,43.53
2019-04-01T08:08:49.185Z,42.32
2019-04-01T08:09:49.174Z,42.67
2019-04-01T08:10:49.161Z,43.40
2019-04-01T08:11:50.224Z,44.02
2019-04-01T08:12:49.244Z,42.63
2019-04-01T08:13:49.134Z,43.28
2019-04-01T08:14:49.116Z,43.40
2019-04-01T08:15:49.104Z,43.30
2019-04-01T08:16:49.093Z,42.34
2019-04-01T08:17:49.083Z,42.26
2019-04-01T08:18:49.135Z,42.77
2019-04-01T08:19:49.060Z,42.94
2019-04-01T08:20:49.048Z,42.00
2019-04-01T08:21:52.238Z,42.12
2019-04-01T08:22:49.027Z,41.83
2019-04-01T08:23:49.021Z,42.20
2019-04-01T08:24:49.072Z,40.99
2019-04-01T08:25:48.991Z,41.09
2019-04-01T08:26:48.981Z,40.77
2019-04-01T08:27:48.974Z,40.56
2019-04-01T08:28:48.958Z,41.28
2019-04-01T08:29:48.944Z,41.32
2019-04-01T08:30:49.006Z,40.91
2019-04-01T08:31:48.927Z,40.58
2019-04-01T08:32:48.920Z,40.67
2019-04-01T08:33:50.402Z,40.97
2019-04-01T08:34:48.889Z,40.65
2019-04-01T08:35:48.878Z,40.67
2019-04-01T08:36:48.926Z,40.87
2019-04-01T08:37:48.869Z,40.73
2019-04-01T08:38:48.843Z,39.57
2019-04-01T08:39:48.830Z,39.76
2019-04-01T08:40:48.819Z,40.03
2019-04-01T08:41:48.806Z,40.77
2019-04-01T08:42:49.199Z,40.99
2019-04-01T08:43:48.788Z,40.56
2019-04-01T08:44:48.780Z,40.56
2019-04-01T08:45:48.760Z,39.62
2019-04-01T08:46:48.748Z,40.10
2019-04-01T08:47:48.736Z,39.74
2019-04-01T08:48:48.790Z,39.04
2019-04-01T08:49:48.717Z,38.51
2019-04-01T08:50:48.710Z,38.67
2019-04-01T08:51:48.692Z,38.11
2019-04-01T08:52:48.685Z,38.01
2019-04-01T08:53:48.690Z,38.52
2019-04-01T08:54:52.001Z,38.64
2019-04-01T08:55:48.650Z,38.85
2019-04-01T08:56:48.681Z,38.56
2019-04-01T08:57:48.627Z,38.54
2019-04-01T08:58:48.615Z,38.52
2019-04-01T08:59:48.603Z,38.01
2019-04-01T09:00:48.698Z,37.14
2019-04-01T09:01:48.602Z,37.07
2019-04-01T09:02:48.572Z,37.57
2019-04-01T09:03:48.555Z,36.92
2019-04-01T09:04:48.547Z,36.19
2019-04-01T09:05:48.567Z,37.35
2019-04-01T09:06:48.568Z,37.14
2019-04-01T09:07:48.509Z,37.04
2019-04-01T09:08:48.500Z,37.01
2019-04-01T09:09:48.501Z,36.80
2019-04-01T09:10:48.477Z,36.90
2019-04-01T09:11:48.514Z,36.88
2019-04-01T09:12:48.451Z,35.39
2019-04-01T09:13:48.441Z,36.34
2019-04-01T09:14:48.428Z,36.46
2019-04-01T09:15:48.422Z,36.46
2019-04-01T09:16:48.476Z,37.07
2019-04-01T09:17:48.398Z,36.36
2019-04-01T09:18:48.382Z,37.48
2019-04-01T09:19:48.372Z,37.70
2019-04-01T09:20:48.360Z,36.85
2019-04-01T09:21:48.353Z,37.24
2019-04-01T09:22:48.385Z,36.44
2019-04-01T09:23:51.912Z,36.55
2019-04-01T09:24:48.315Z,37.07
2019-04-01T09:25:48.304Z,37.17
2019-04-01T09:26:48.413Z,37.40
2019-04-01T09:27:48.281Z,37.16
2019-04-01T09:28:48.271Z,37.07
2019-04-01T09:29:48.258Z,37.60
2019-04-01T09:30:48.246Z,37.29
2019-04-01T09:31:48.235Z,37.40
2019-04-01T09:32:48.293Z,37.88
2019-04-01T09:33:48.211Z,37.14
2019-04-01T09:34:48.200Z,36.69
2019-04-01T09:35:48.191Z,37.24
2019-04-01T09:36:48.177Z,37.26
2019-04-01T09:37:48.166Z,36.92
2019-04-01T09:38:48.216Z,36.60
2019-04-01T09:39:48.141Z,37.00
2019-04-01T09:40:48.132Z,37.43
2019-04-01T09:41:48.121Z,37.66
2019-04-01T09:42:48.109Z,37.77
2019-04-01T09:43:48.103Z,36.82
2019-04-01T09:44:48.141Z,36.43
2019-04-01T09:45:48.084Z,36.44
2019-04-01T09:46:49.135Z,37.17
2019-04-01T09:47:48.052Z,37.80
2019-04-01T09:48:48.040Z,37.17
2019-04-01T09:49:48.092Z,36.95
2019-04-01T09:50:48.020Z,37.24
2019-04-01T09:51:49.209Z,37.19
2019-04-01T09:52:47.997Z,37.27
2019-04-01T09:53:47.985Z,36.85
2019-04-01T09:54:47.979Z,35.92
2019-04-01T09:55:48.015Z,36.22
2019-04-01T09:56:47.952Z,36.49
2019-04-01T09:57:47.940Z,35.80
2019-04-01T09:58:47.930Z,35.39
2019-04-01T09:59:48.126Z,35.31
2019-04-01T10:00:47.937Z,36.61
2019-04-01T10:01:47.898Z,36.58
2019-04-01T10:02:47.886Z,36.68
2019-04-01T10:03:47.896Z,35.56
2019-04-01T10:04:47.859Z,35.77
2019-04-01T10:05:47.911Z,34.95
2019-04-01T10:06:47.838Z,35.97
2019-04-01T10:07:47.867Z,35.55
2019-04-01T10:08:47.815Z,35.64
2019-04-01T10:09:47.803Z,35.82
2019-04-01T10:10:47.791Z,36.00
2019-04-01T10:11:47.840Z,35.19
2019-04-01T10:12:47.767Z,34.34
2019-04-01T10:13:47.758Z,33.96
2019-04-01T10:14:47.745Z,33.67
2019-04-01T10:15:47.737Z,34.52
2019-04-01T10:16:47.723Z,34.94
2019-04-01T10:17:47.758Z,34.85
2019-04-01T10:18:47.702Z,35.55
2019-04-01T10:19:47.689Z,34.22
2019-04-01T10:20:47.742Z,35.48
2019-04-01T10:21:47.671Z,35.64
2019-04-01T10:22:47.655Z,34.19
2019-04-01T10:23:47.644Z,34.78
2019-04-01T10:24:47.631Z,34.65
2019-04-01T10:25:51.152Z,34.34
2019-04-01T10:26:47.657Z,34.13
2019-04-01T10:27:47.599Z,34.45
2019-04-01T10:28:47.590Z,34.16
2019-04-01T10:29:47.576Z,34.19
2019-04-01T10:30:47.613Z,34.12
2019-04-01T10:31:47.553Z,35.53
2019-04-01T10:32:47.554Z,35.64
2019-04-01T10:33:47.530Z,36.66
2019-04-01T10:34:47.519Z,35.63
2019-04-01T10:35:47.558Z,35.55
2019-04-01T10:36:47.497Z,36.05
2019-04-01T10:37:47.486Z,35.70
2019-04-01T10:38:47.474Z,34.08
2019-04-01T10:39:47.473Z,34.64
2019-04-01T10:40:47.511Z,34.56
2019-04-01T10:41:47.439Z,35.56
2019-04-01T10:42:47.428Z,36.17
2019-04-01T10:43:47.418Z,35.00
2019-04-01T10:44:47.406Z,35.00
2019-04-01T10:45:47.394Z,34.72
2019-04-01T10:46:47.511Z,34.60
2019-04-01T10:47:47.371Z,34.50
2019-04-01T10:48:47.393Z,34.39
2019-04-01T10:49:47.387Z,35.53
2019-04-01T10:50:47.418Z,34.80
2019-04-01T10:51:47.409Z,35.60
2019-04-01T10:52:47.514Z,35.48
2019-04-01T10:53:47.315Z,34.97
2019-04-01T10:54:47.292Z,34.14
2019-04-01T10:55:47.328Z,33.74
2019-04-01T10:56:47.302Z,34.06
2019-04-01T10:57:47.285Z,34.48
2019-04-01T10:58:47.365Z,35.07
2019-04-01T10:59:47.332Z,34.31
2019-04-01T11:00:47.285Z,32.48
2019-04-01T11:01:47.291Z,32.81
2019-04-01T11:02:50.029Z,34.08
2019-04-01T11:03:47.191Z,33.96
2019-04-01T11:04:47.407Z,34.47
2019-04-01T11:05:47.254Z,35.83
2019-04-01T11:06:47.244Z,35.39
2019-04-01T11:07:47.192Z,34.58
2019-04-01T11:08:47.177Z,34.19
2019-04-01T11:09:47.122Z,34.16
2019-04-01T11:10:47.345Z,34.25
2019-04-01T11:11:47.103Z,34.43
2019-04-01T11:12:47.085Z,34.17
2019-04-01T11:13:47.075Z,34.38
2019-04-01T11:14:47.070Z,34.06
2019-04-01T11:15:47.069Z,35.17
2019-04-01T11:16:47.105Z,34.84
2019-04-01T11:17:47.029Z,34.05
2019-04-01T11:18:47.019Z,34.14
2019-04-01T11:19:47.006Z,33.32
2019-04-01T11:20:46.994Z,32.88
2019-04-01T11:21:46.984Z,34.22
2019-04-01T11:22:47.041Z,32.81
2019-04-01T11:23:47.011Z,34.89
2019-04-01T11:24:46.947Z,33.01
2019-04-01T11:25:46.937Z,33.50
2019-04-01T11:26:47.415Z,31.82
2019-04-01T11:27:46.914Z,31.09
2019-04-01T11:28:47.111Z,31.29
2019-04-01T11:29:46.892Z,30.93
2019-04-01T11:30:46.924Z,33.00
2019-04-01T11:31:46.906Z,32.81
2019-04-01T11:32:46.899Z,32.56
2019-04-01T11:33:46.864Z,33.61
2019-04-01T11:34:47.088Z,32.48
2019-04-01T11:35:46.852Z,32.48
2019-04-01T11:36:46.840Z,32.71
2019-04-01T11:37:46.831Z,33.30
2019-04-01T11:38:46.837Z,32.95
2019-04-01T11:39:46.874Z,31.81
2019-04-01T11:40:46.941Z,32.75
2019-04-01T11:41:46.777Z,32.97
2019-04-01T11:42:46.774Z,33.10
2019-04-01T11:43:46.785Z,32.36
2019-04-01T11:44:46.783Z,32.76
2019-04-01T11:45:46.757Z,33.27
2019-04-01T11:46:46.819Z,32.98
2019-04-01T11:47:46.737Z,32.87
2019-04-01T11:48:46.724Z,32.36
2019-04-01T11:49:46.697Z,32.45
2019-04-01T11:50:47.922Z,32.43
2019-04-01T11:51:46.649Z,32.73
2019-04-01T11:52:46.762Z,33.46
2019-04-01T11:53:46.627Z,32.95
2019-04-01T11:54:46.624Z,31.42
2019-04-01T11:55:46.606Z,31.84
2019-04-01T11:56:46.594Z,32.48
2019-04-01T11:57:46.582Z,32.55
2019-04-01T11:58:46.632Z,32.95
2019-04-01T11:59:46.562Z,31.35
2019-04-01T12:00:46.549Z,31.52
2019-04-01T12:01:47.394Z,31.48
2019-04-01T12:02:46.601Z,30.38
2019-04-01T12:03:46.522Z,31.94
2019-04-01T12:04:46.573Z,31.03
2019-04-01T12:05:46.495Z,30.93
2019-04-01T12:06:46.486Z,32.46
2019-04-01T12:07:46.478Z,31.64
2019-04-01T12:08:46.462Z,30.34
2019-04-01T12:09:46.451Z,31.60
2019-04-01T12:10:46.503Z,33.33
2019-04-01T12:11:46.430Z,32.59
2019-04-01T12:12:46.417Z,31.16
2019-04-01T12:13:46.406Z,32.56
2019-04-01T12:14:46.397Z,33.07
2019-04-01T12:15:46.388Z,31.74
2019-04-01T12:16:46.434Z,31.23
2019-04-01T12:17:46.363Z,31.05
2019-04-01T12:18:46.348Z,33.05
2019-04-01T12:19:46.338Z,31.20
2019-04-01T12:20:46.329Z,30.62
2019-04-01T12:21:46.319Z,31.58
2019-04-01T12:22:46.377Z,29.85
2019-04-01T12:23:46.292Z,30.57
2019-04-01T12:24:46.284Z,30.52
2019-04-01T12:25:46.270Z,30.12
2019-04-01T12:26:46.379Z,29.82
2019-04-01T12:27:46.312Z,29.89
2019-04-01T12:28:46.237Z,30.68
2019-04-01T12:29:48.204Z,30.67
2019-04-01T12:30:46.238Z,30.16
2019-04-01T12:31:46.207Z,30.68
2019-04-01T12:32:46.196Z,31.42
2019-04-01T12:33:47.635Z,31.12
2019-04-01T12:34:46.826Z,30.57
2019-04-01T12:35:46.163Z,29.82
2019-04-01T12:36:46.162Z,29.42
2019-04-01T12:37:46.271Z,29.63
2019-04-01T12:38:46.130Z,30.15
2019-04-01T12:39:46.165Z,30.36
2019-04-01T12:40:46.107Z,30.28
2019-04-01T12:41:47.460Z,30.50
2019-04-01T12:42:46.608Z,30.90
2019-04-01T12:43:46.077Z,30.15
2019-04-01T12:44:46.114Z,29.61
2019-04-01T12:45:46.055Z,29.32
2019-04-01T12:46:46.044Z,30.36
2019-04-01T12:47:46.037Z,29.75
2019-04-01T12:48:46.019Z,29.46
2019-04-01T12:49:46.078Z,29.30
2019-04-01T12:50:45.994Z,30.11
2019-04-01T12:51:45.983Z,30.12
2019-04-01T12:52:46.307Z,31.24